Marathon, Texas
Current Conditions -  °F | °C
As of 2:15 PM on Thursday 23 Oct 2014 (Local Time) from KE38 Reporting Station
Scattered Clouds Scattered Clouds  
Wind Chill: 74°   Ceiling: Unl
Heat Index: 74°   Visibility: 10mi
Dew Point: 50°   Wind: 0mph
Humidity: 42%   Direction: NA
Pressure: 30.26"   Gusts: NA
Location:  30.21°N, 103.25°W
Report Text: KE38 231915Z AUTO 00000KT 10SM SCT060 SCT070 SCT080 24/10 A3026 RMK AO2 T02360101
Loading
Personal Weather Stations






























Interactive Weather Map
Tropical Storm Tracking
New forecast layout! Learn more

10-Day Weather Forecast

Advertisements
Track Severe Weather on mobile